sensor_id;sensor_type;location;lat;lon;timestamp;P1;durP1;ratioP1;P2;durP2;ratioP2
15114;SDS011;7658;51.456;7.622;2023-02-15T00:01:29;20.87;;;14.03;;
15114;SDS011;7658;51.456;7.622;2023-02-15T00:03:55;21.40;;;13.57;;
15114;SDS011;7658;51.456;7.622;2023-02-15T00:06:21;19.87;;;14.00;;
15114;SDS011;7658;51.456;7.622;2023-02-15T00:08:47;20.60;;;14.47;;
15114;SDS011;7658;51.456;7.622;2023-02-15T00:11:14;23.30;;;15.13;;
15114;SDS011;7658;51.456;7.622;2023-02-15T00:13:41;19.73;;;13.17;;
15114;SDS011;7658;51.456;7.622;2023-02-15T00:16:09;19.60;;;13.70;;
15114;SDS011;7658;51.456;7.622;2023-02-15T00:18:36;18.27;;;14.03;;
15114;SDS011;7658;51.456;7.622;2023-02-15T00:21:04;22.57;;;15.23;;
15114;SDS011;7658;51.456;7.622;2023-02-15T00:23:32;20.87;;;14.87;;
15114;SDS011;7658;51.456;7.622;2023-02-15T00:26:04;15.87;;;13.50;;
15114;SDS011;7658;51.456;7.622;2023-02-15T00:28:30;24.37;;;14.80;;
15114;SDS011;7658;51.456;7.622;2023-02-15T00:31:03;20.83;;;14.43;;
15114;SDS011;7658;51.456;7.622;2023-02-15T00:33:33;20.60;;;14.40;;
15114;SDS011;7658;51.456;7.622;2023-02-15T00:35:59;22.37;;;14.70;;
15114;SDS011;7658;51.456;7.622;2023-02-15T00:38:27;20.87;;;14.93;;
15114;SDS011;7658;51.456;7.622;2023-02-15T00:40:54;19.83;;;13.40;;
15114;SDS011;7658;51.456;7.622;2023-02-15T00:43:24;18.57;;;13.93;;
15114;SDS011;7658;51.456;7.622;2023-02-15T00:45:50;18.40;;;13.10;;
15114;SDS011;7658;51.456;7.622;2023-02-15T00:48:16;16.70;;;13.17;;
15114;SDS011;7658;51.456;7.622;2023-02-15T00:50:44;16.73;;;13.77;;
15114;SDS011;7658;51.456;7.622;2023-02-15T00:53:11;18.50;;;13.90;;
15114;SDS011;7658;51.456;7.622;2023-02-15T00:55:37;16.63;;;12.93;;
15114;SDS011;7658;51.456;7.622;2023-02-15T00:58:04;17.83;;;13.67;;
15114;SDS011;7658;51.456;7.622;2023-02-15T01:00:31;21.53;;;14.10;;
15114;SDS011;7658;51.456;7.622;2023-02-15T01:02:56;24.63;;;15.30;;
15114;SDS011;7658;51.456;7.622;2023-02-15T01:05:22;20.67;;;14.20;;
15114;SDS011;7658;51.456;7.622;2023-02-15T01:07:48;20.83;;;15.23;;
15114;SDS011;7658;51.456;7.622;2023-02-15T01:10:13;22.83;;;15.97;;
15114;SDS011;7658;51.456;7.622;2023-02-15T01:12:39;21.73;;;14.40;;
15114;SDS011;7658;51.456;7.622;2023-02-15T01:15:05;20.20;;;14.57;;
15114;SDS011;7658;51.456;7.622;2023-02-15T01:17:31;20.13;;;14.67;;
15114;SDS011;7658;51.456;7.622;2023-02-15T01:19:57;17.33;;;14.53;;
15114;SDS011;7658;51.456;7.622;2023-02-15T01:22:24;18.83;;;13.77;;
15114;SDS011;7658;51.456;7.622;2023-02-15T01:24:50;18.57;;;14.37;;
15114;SDS011;7658;51.456;7.622;2023-02-15T01:27:16;22.23;;;14.97;;
15114;SDS011;7658;51.456;7.622;2023-02-15T01:29:41;21.33;;;14.10;;
15114;SDS011;7658;51.456;7.622;2023-02-15T01:32:07;20.77;;;14.97;;
15114;SDS011;7658;51.456;7.622;2023-02-15T01:34:33;17.20;;;14.20;;
15114;SDS011;7658;51.456;7.622;2023-02-15T01:36:59;18.67;;;14.00;;
15114;SDS011;7658;51.456;7.622;2023-02-15T01:39:24;21.00;;;13.90;;
15114;SDS011;7658;51.456;7.622;2023-02-15T01:41:50;20.73;;;15.10;;
15114;SDS011;7658;51.456;7.622;2023-02-15T01:47:07;25.93;;;14.33;;
15114;SDS011;7658;51.456;7.622;2023-02-15T01:49:35;17.67;;;14.70;;
15114;SDS011;7658;51.456;7.622;2023-02-15T01:52:01;18.67;;;14.30;;
15114;SDS011;7658;51.456;7.622;2023-02-15T01:54:29;15.93;;;13.47;;
15114;SDS011;7658;51.456;7.622;2023-02-15T01:57:04;17.93;;;13.63;;
15114;SDS011;7658;51.456;7.622;2023-02-15T01:59:34;16.50;;;13.30;;
15114;SDS011;7658;51.456;7.622;2023-02-15T02:02:03;20.13;;;14.00;;
15114;SDS011;7658;51.456;7.622;2023-02-15T02:04:38;18.03;;;13.70;;
15114;SDS011;7658;51.456;7.622;2023-02-15T02:07:18;18.57;;;13.00;;
15114;SDS011;7658;51.456;7.622;2023-02-15T02:09:46;19.63;;;13.73;;
15114;SDS011;7658;51.456;7.622;2023-02-15T02:12:13;19.80;;;13.97;;
15114;SDS011;7658;51.456;7.622;2023-02-15T02:14:41;16.53;;;13.07;;
15114;SDS011;7658;51.456;7.622;2023-02-15T02:34:05;20.80;;;15.13;;
15114;SDS011;7658;51.456;7.622;2023-02-15T02:39:41;18.80;;;13.57;;
15114;SDS011;7658;51.456;7.622;2023-02-15T02:42:48;20.57;;;13.87;;
15114;SDS011;7658;51.456;7.622;2023-02-15T02:48:02;22.70;;;14.37;;
15114;SDS011;7658;51.456;7.622;2023-02-15T02:50:40;20.57;;;15.07;;
15114;SDS011;7658;51.456;7.622;2023-02-15T02:53:07;16.77;;;13.83;;
15114;SDS011;7658;51.456;7.622;2023-02-15T02:55:35;18.40;;;13.67;;
15114;SDS011;7658;51.456;7.622;2023-02-15T03:01:03;17.37;;;13.97;;
15114;SDS011;7658;51.456;7.622;2023-02-15T03:03:47;15.37;;;13.80;;
15114;SDS011;7658;51.456;7.622;2023-02-15T03:09:23;20.67;;;14.30;;
15114;SDS011;7658;51.456;7.622;2023-02-15T03:11:59;17.17;;;13.93;;
15114;SDS011;7658;51.456;7.622;2023-02-15T03:14:28;18.87;;;13.77;;
15114;SDS011;7658;51.456;7.622;2023-02-15T03:16:54;21.80;;;13.90;;
15114;SDS011;7658;51.456;7.622;2023-02-15T03:19:22;21.03;;;14.13;;
15114;SDS011;7658;51.456;7.622;2023-02-15T03:22:08;18.10;;;14.53;;
15114;SDS011;7658;51.456;7.622;2023-02-15T03:25:00;19.03;;;14.13;;
15114;SDS011;7658;51.456;7.622;2023-02-15T03:27:33;18.63;;;13.70;;
15114;SDS011;7658;51.456;7.622;2023-02-15T03:30:04;17.27;;;13.53;;
15114;SDS011;7658;51.456;7.622;2023-02-15T03:32:32;20.03;;;14.07;;
15114;SDS011;7658;51.456;7.622;2023-02-15T03:34:59;18.30;;;13.57;;
15114;SDS011;7658;51.456;7.622;2023-02-15T03:37:32;19.30;;;14.90;;
15114;SDS011;7658;51.456;7.622;2023-02-15T03:40:11;21.20;;;15.10;;
15114;SDS011;7658;51.456;7.622;2023-02-15T03:45:42;20.27;;;14.77;;
15114;SDS011;7658;51.456;7.622;2023-02-15T03:48:26;17.63;;;15.40;;
15114;SDS011;7658;51.456;7.622;2023-02-15T03:50:59;22.63;;;13.60;;
15114;SDS011;7658;51.456;7.622;2023-02-15T03:53:47;22.83;;;14.97;;
15114;SDS011;7658;51.456;7.622;2023-02-15T03:56:14;18.67;;;14.93;;
15114;SDS011;7658;51.456;7.622;2023-02-15T03:58:40;21.90;;;15.30;;
15114;SDS011;7658;51.456;7.622;2023-02-15T04:01:32;16.23;;;14.00;;
15114;SDS011;7658;51.456;7.622;2023-02-15T04:04:20;20.30;;;14.87;;
15114;SDS011;7658;51.456;7.622;2023-02-15T04:06:48;21.30;;;14.90;;
15114;SDS011;7658;51.456;7.622;2023-02-15T04:09:13;17.30;;;15.03;;
15114;SDS011;7658;51.456;7.622;2023-02-15T04:11:58;18.70;;;14.73;;
15114;SDS011;7658;51.456;7.622;2023-02-15T04:14:24;20.40;;;15.07;;
15114;SDS011;7658;51.456;7.622;2023-02-15T04:17:09;20.33;;;15.63;;
15114;SDS011;7658;51.456;7.622;2023-02-15T04:19:35;19.40;;;14.90;;
15114;SDS011;7658;51.456;7.622;2023-02-15T04:22:19;22.20;;;16.37;;
15114;SDS011;7658;51.456;7.622;2023-02-15T04:25:03;22.20;;;16.43;;
15114;SDS011;7658;51.456;7.622;2023-02-15T04:27:39;21.33;;;15.33;;
15114;SDS011;7658;51.456;7.622;2023-02-15T04:30:07;25.13;;;15.87;;
15114;SDS011;7658;51.456;7.622;2023-02-15T04:32:34;21.47;;;16.23;;
15114;SDS011;7658;51.456;7.622;2023-02-15T04:35:00;22.73;;;15.97;;
15114;SDS011;7658;51.456;7.622;2023-02-15T04:37:27;21.37;;;16.33;;
15114;SDS011;7658;51.456;7.622;2023-02-15T04:39:53;20.00;;;15.10;;
15114;SDS011;7658;51.456;7.622;2023-02-15T04:42:18;24.47;;;15.40;;
15114;SDS011;7658;51.456;7.622;2023-02-15T04:44:44;22.23;;;15.63;;
15114;SDS011;7658;51.456;7.622;2023-02-15T04:47:10;20.53;;;15.40;;
15114;SDS011;7658;51.456;7.622;2023-02-15T04:49:36;21.57;;;15.87;;
15114;SDS011;7658;51.456;7.622;2023-02-15T04:52:01;18.33;;;15.00;;
15114;SDS011;7658;51.456;7.622;2023-02-15T04:54:27;22.37;;;15.03;;
15114;SDS011;7658;51.456;7.622;2023-02-15T04:56:53;22.60;;;15.33;;
15114;SDS011;7658;51.456;7.622;2023-02-15T04:59:18;21.17;;;16.27;;
15114;SDS011;7658;51.456;7.622;2023-02-15T05:01:44;20.47;;;14.87;;
15114;SDS011;7658;51.456;7.622;2023-02-15T05:04:10;22.63;;;15.53;;
15114;SDS011;7658;51.456;7.622;2023-02-15T05:06:36;23.93;;;14.60;;
15114;SDS011;7658;51.456;7.622;2023-02-15T05:09:01;18.63;;;14.53;;
15114;SDS011;7658;51.456;7.622;2023-02-15T05:11:27;25.17;;;15.97;;
15114;SDS011;7658;51.456;7.622;2023-02-15T05:13:53;23.80;;;16.50;;
15114;SDS011;7658;51.456;7.622;2023-02-15T05:16:19;20.23;;;15.23;;
15114;SDS011;7658;51.456;7.622;2023-02-15T05:18:44;23.17;;;16.50;;
15114;SDS011;7658;51.456;7.622;2023-02-15T05:21:10;23.50;;;16.53;;
15114;SDS011;7658;51.456;7.622;2023-02-15T05:23:36;24.93;;;16.50;;
15114;SDS011;7658;51.456;7.622;2023-02-15T05:26:02;21.57;;;16.30;;
15114;SDS011;7658;51.456;7.622;2023-02-15T05:28:46;22.50;;;16.70;;
15114;SDS011;7658;51.456;7.622;2023-02-15T05:31:13;20.67;;;15.27;;
15114;SDS011;7658;51.456;7.622;2023-02-15T05:33:40;24.40;;;16.30;;
15114;SDS011;7658;51.456;7.622;2023-02-15T05:36:06;23.67;;;16.47;;
15114;SDS011;7658;51.456;7.622;2023-02-15T05:38:32;23.17;;;16.03;;
15114;SDS011;7658;51.456;7.622;2023-02-15T05:40:58;25.43;;;17.07;;
15114;SDS011;7658;51.456;7.622;2023-02-15T05:43:24;21.80;;;17.37;;
15114;SDS011;7658;51.456;7.622;2023-02-15T05:45:52;24.03;;;16.77;;
15114;SDS011;7658;51.456;7.622;2023-02-15T05:48:19;22.67;;;16.87;;
15114;SDS011;7658;51.456;7.622;2023-02-15T05:50:55;25.77;;;17.17;;
15114;SDS011;7658;51.456;7.622;2023-02-15T05:53:26;28.53;;;17.23;;
15114;SDS011;7658;51.456;7.622;2023-02-15T05:55:53;23.00;;;16.47;;
15114;SDS011;7658;51.456;7.622;2023-02-15T05:58:23;29.07;;;17.10;;
15114;SDS011;7658;51.456;7.622;2023-02-15T06:00:52;21.10;;;16.03;;
15114;SDS011;7658;51.456;7.622;2023-02-15T06:03:18;24.03;;;15.80;;
15114;SDS011;7658;51.456;7.622;2023-02-15T06:05:44;20.33;;;15.10;;
15114;SDS011;7658;51.456;7.622;2023-02-15T06:08:10;26.50;;;17.43;;
15114;SDS011;7658;51.456;7.622;2023-02-15T06:10:36;27.23;;;18.17;;
15114;SDS011;7658;51.456;7.622;2023-02-15T06:13:01;25.57;;;17.23;;
15114;SDS011;7658;51.456;7.622;2023-02-15T06:15:27;24.50;;;17.07;;
15114;SDS011;7658;51.456;7.622;2023-02-15T06:17:53;26.90;;;18.07;;
15114;SDS011;7658;51.456;7.622;2023-02-15T06:20:18;23.90;;;17.57;;
15114;SDS011;7658;51.456;7.622;2023-02-15T06:22:44;24.80;;;17.13;;
15114;SDS011;7658;51.456;7.622;2023-02-15T06:25:10;25.37;;;16.73;;
15114;SDS011;7658;51.456;7.622;2023-02-15T06:27:37;26.17;;;17.23;;
15114;SDS011;7658;51.456;7.622;2023-02-15T06:30:06;24.07;;;17.27;;
15114;SDS011;7658;51.456;7.622;2023-02-15T06:32:33;24.60;;;17.10;;
15114;SDS011;7658;51.456;7.622;2023-02-15T06:34:59;29.10;;;18.87;;
15114;SDS011;7658;51.456;7.622;2023-02-15T06:37:25;31.97;;;18.13;;
15114;SDS011;7658;51.456;7.622;2023-02-15T06:39:50;28.63;;;17.23;;
15114;SDS011;7658;51.456;7.622;2023-02-15T06:42:16;31.90;;;18.90;;
15114;SDS011;7658;51.456;7.622;2023-02-15T06:44:43;29.43;;;17.60;;
15114;SDS011;7658;51.456;7.622;2023-02-15T06:47:09;26.70;;;16.97;;
15114;SDS011;7658;51.456;7.622;2023-02-15T06:49:36;22.97;;;16.47;;
15114;SDS011;7658;51.456;7.622;2023-02-15T06:52:02;26.87;;;18.90;;
15114;SDS011;7658;51.456;7.622;2023-02-15T06:54:28;29.93;;;18.17;;
15114;SDS011;7658;51.456;7.622;2023-02-15T06:56:54;29.63;;;18.70;;
15114;SDS011;7658;51.456;7.622;2023-02-15T06:59:20;30.13;;;18.70;;
15114;SDS011;7658;51.456;7.622;2023-02-15T07:01:46;26.43;;;17.10;;
15114;SDS011;7658;51.456;7.622;2023-02-15T07:04:12;24.20;;;17.77;;
15114;SDS011;7658;51.456;7.622;2023-02-15T07:06:38;29.13;;;18.13;;
15114;SDS011;7658;51.456;7.622;2023-02-15T07:09:04;23.17;;;16.80;;
15114;SDS011;7658;51.456;7.622;2023-02-15T07:11:30;24.40;;;17.00;;
15114;SDS011;7658;51.456;7.622;2023-02-15T07:14:14;22.27;;;17.63;;
15114;SDS011;7658;51.456;7.622;2023-02-15T07:16:40;23.40;;;16.67;;
15114;SDS011;7658;51.456;7.622;2023-02-15T07:19:05;23.03;;;16.63;;
15114;SDS011;7658;51.456;7.622;2023-02-15T07:21:32;25.07;;;17.03;;
15114;SDS011;7658;51.456;7.622;2023-02-15T07:23:58;28.07;;;19.00;;
15114;SDS011;7658;51.456;7.622;2023-02-15T07:26:25;24.50;;;19.00;;
15114;SDS011;7658;51.456;7.622;2023-02-15T07:28:51;27.30;;;17.73;;
15114;SDS011;7658;51.456;7.622;2023-02-15T07:31:17;27.20;;;19.37;;
15114;SDS011;7658;51.456;7.622;2023-02-15T07:33:42;24.30;;;18.13;;
15114;SDS011;7658;51.456;7.622;2023-02-15T07:36:09;24.43;;;17.83;;
15114;SDS011;7658;51.456;7.622;2023-02-15T07:38:37;27.27;;;19.23;;
15114;SDS011;7658;51.456;7.622;2023-02-15T07:41:14;24.20;;;18.17;;
15114;SDS011;7658;51.456;7.622;2023-02-15T07:43:41;27.93;;;18.67;;
15114;SDS011;7658;51.456;7.622;2023-02-15T07:46:09;27.67;;;18.43;;
15114;SDS011;7658;51.456;7.622;2023-02-15T07:48:39;28.53;;;18.57;;
15114;SDS011;7658;51.456;7.622;2023-02-15T07:51:06;27.00;;;18.33;;
15114;SDS011;7658;51.456;7.622;2023-02-15T07:53:33;30.23;;;20.17;;
15114;SDS011;7658;51.456;7.622;2023-02-15T07:56:03;28.87;;;19.63;;
15114;SDS011;7658;51.456;7.622;2023-02-15T07:58:35;28.77;;;19.90;;
15114;SDS011;7658;51.456;7.622;2023-02-15T08:01:17;25.37;;;17.90;;
15114;SDS011;7658;51.456;7.622;2023-02-15T08:03:46;28.57;;;18.63;;
15114;SDS011;7658;51.456;7.622;2023-02-15T08:06:12;29.73;;;18.10;;
15114;SDS011;7658;51.456;7.622;2023-02-15T08:08:38;23.40;;;17.93;;
15114;SDS011;7658;51.456;7.622;2023-02-15T08:13:51;26.57;;;17.87;;
15114;SDS011;7658;51.456;7.622;2023-02-15T08:16:19;29.70;;;19.27;;
15114;SDS011;7658;51.456;7.622;2023-02-15T08:18:45;28.03;;;18.87;;
15114;SDS011;7658;51.456;7.622;2023-02-15T08:21:11;26.77;;;18.17;;
15114;SDS011;7658;51.456;7.622;2023-02-15T08:23:37;23.67;;;18.17;;
15114;SDS011;7658;51.456;7.622;2023-02-15T08:26:03;24.70;;;18.63;;
15114;SDS011;7658;51.456;7.622;2023-02-15T08:28:29;27.13;;;18.67;;
15114;SDS011;7658;51.456;7.622;2023-02-15T08:31:03;32.70;;;18.90;;
15114;SDS011;7658;51.456;7.622;2023-02-15T08:33:32;27.43;;;18.57;;
15114;SDS011;7658;51.456;7.622;2023-02-15T08:36:02;29.40;;;19.70;;
15114;SDS011;7658;51.456;7.622;2023-02-15T08:38:32;27.40;;;18.67;;
15114;SDS011;7658;51.456;7.622;2023-02-15T08:41:09;25.27;;;18.97;;
15114;SDS011;7658;51.456;7.622;2023-02-15T08:43:36;26.23;;;18.20;;
15114;SDS011;7658;51.456;7.622;2023-02-15T08:46:02;27.13;;;19.70;;
15114;SDS011;7658;51.456;7.622;2023-02-15T08:48:28;30.20;;;20.47;;
15114;SDS011;7658;51.456;7.622;2023-02-15T08:50:53;31.57;;;20.83;;
15114;SDS011;7658;51.456;7.622;2023-02-15T08:53:19;29.10;;;20.60;;
15114;SDS011;7658;51.456;7.622;2023-02-15T08:55:46;29.70;;;22.00;;
15114;SDS011;7658;51.456;7.622;2023-02-15T08:58:19;30.80;;;21.30;;
15114;SDS011;7658;51.456;7.622;2023-02-15T09:00:45;31.50;;;21.93;;
15114;SDS011;7658;51.456;7.622;2023-02-15T09:03:11;27.53;;;21.60;;
15114;SDS011;7658;51.456;7.622;2023-02-15T09:05:36;33.07;;;20.77;;
15114;SDS011;7658;51.456;7.622;2023-02-15T09:08:02;32.33;;;22.90;;
15114;SDS011;7658;51.456;7.622;2023-02-15T09:10:28;34.47;;;23.47;;
15114;SDS011;7658;51.456;7.622;2023-02-15T09:12:53;38.67;;;23.80;;
15114;SDS011;7658;51.456;7.622;2023-02-15T09:15:19;36.40;;;23.33;;
15114;SDS011;7658;51.456;7.622;2023-02-15T09:17:45;34.17;;;23.13;;
15114;SDS011;7658;51.456;7.622;2023-02-15T09:20:10;30.43;;;21.80;;
15114;SDS011;7658;51.456;7.622;2023-02-15T09:22:36;40.03;;;23.40;;
15114;SDS011;7658;51.456;7.622;2023-02-15T09:25:02;36.83;;;22.63;;
15114;SDS011;7658;51.456;7.622;2023-02-15T09:27:29;35.23;;;22.90;;
15114;SDS011;7658;51.456;7.622;2023-02-15T09:29:55;34.30;;;22.47;;
15114;SDS011;7658;51.456;7.622;2023-02-15T09:32:20;32.93;;;22.57;;
15114;SDS011;7658;51.456;7.622;2023-02-15T09:34:47;30.57;;;21.83;;
15114;SDS011;7658;51.456;7.622;2023-02-15T09:37:13;34.17;;;21.33;;
15114;SDS011;7658;51.456;7.622;2023-02-15T09:39:39;31.20;;;22.50;;
15114;SDS011;7658;51.456;7.622;2023-02-15T10:18:14;29.97;;;19.93;;
15114;SDS011;7658;51.456;7.622;2023-02-15T10:20:50;35.43;;;20.30;;
15114;SDS011;7658;51.456;7.622;2023-02-15T10:23:39;29.40;;;20.33;;
15114;SDS011;7658;51.456;7.622;2023-02-15T10:26:23;29.40;;;19.60;;
15114;SDS011;7658;51.456;7.622;2023-02-15T10:29:00;29.77;;;19.20;;
15114;SDS011;7658;51.456;7.622;2023-02-15T10:31:49;30.80;;;19.23;;
15114;SDS011;7658;51.456;7.622;2023-02-15T10:37:32;29.80;;;19.40;;
15114;SDS011;7658;51.456;7.622;2023-02-15T10:40:10;28.30;;;18.30;;
15114;SDS011;7658;51.456;7.622;2023-02-15T11:04:09;23.70;;;16.13;;
15114;SDS011;7658;51.456;7.622;2023-02-15T11:06:53;23.73;;;16.30;;
15114;SDS011;7658;51.456;7.622;2023-02-15T11:09:23;24.50;;;16.30;;
15114;SDS011;7658;51.456;7.622;2023-02-15T11:11:52;28.87;;;16.03;;
15114;SDS011;7658;51.456;7.622;2023-02-15T11:17:22;24.70;;;14.87;;
15114;SDS011;7658;51.456;7.622;2023-02-15T11:19:57;26.48;;;16.30;;
15114;SDS011;7658;51.456;7.622;2023-02-15T11:22:30;22.73;;;15.43;;
15114;SDS011;7658;51.456;7.622;2023-02-15T11:24:58;21.70;;;15.10;;
15114;SDS011;7658;51.456;7.622;2023-02-15T11:27:32;21.42;;;13.48;;
15114;SDS011;7658;51.456;7.622;2023-02-15T11:30:03;24.90;;;14.35;;
15114;SDS011;7658;51.456;7.622;2023-02-15T11:37:39;25.17;;;14.88;;
15114;SDS011;7658;51.456;7.622;2023-02-15T11:43:06;19.27;;;13.57;;
15114;SDS011;7658;51.456;7.622;2023-02-15T11:45:38;19.60;;;12.10;;
15114;SDS011;7658;51.456;7.622;2023-02-15T11:48:08;16.20;;;10.68;;
15114;SDS011;7658;51.456;7.622;2023-02-15T11:50:36;13.60;;;9.70;;
15114;SDS011;7658;51.456;7.622;2023-02-15T11:53:04;15.93;;;10.35;;
15114;SDS011;7658;51.456;7.622;2023-02-15T11:55:36;16.02;;;9.55;;
15114;SDS011;7658;51.456;7.622;2023-02-15T12:01:00;12.95;;;8.88;;
15114;SDS011;7658;51.456;7.622;2023-02-15T12:06:28;11.85;;;8.73;;
15114;SDS011;7658;51.456;7.622;2023-02-15T12:11:38;12.82;;;8.30;;
15114;SDS011;7658;51.456;7.622;2023-02-15T12:14:07;12.10;;;8.45;;
15114;SDS011;7658;51.456;7.622;2023-02-15T12:16:40;12.93;;;8.57;;
15114;SDS011;7658;51.456;7.622;2023-02-15T12:19:24;14.88;;;9.30;;
15114;SDS011;7658;51.456;7.622;2023-02-15T12:21:54;20.27;;;9.25;;
15114;SDS011;7658;51.456;7.622;2023-02-15T12:27:12;12.65;;;8.55;;
15114;SDS011;7658;51.456;7.622;2023-02-15T12:29:40;15.40;;;8.98;;
15114;SDS011;7658;51.456;7.622;2023-02-15T12:32:17;17.35;;;8.80;;
15114;SDS011;7658;51.456;7.622;2023-02-15T12:34:48;15.52;;;9.05;;
15114;SDS011;7658;51.456;7.622;2023-02-15T12:37:23;21.50;;;9.48;;
15114;SDS011;7658;51.456;7.622;2023-02-15T12:39:56;13.90;;;9.05;;
15114;SDS011;7658;51.456;7.622;2023-02-15T12:42:24;15.98;;;9.18;;
15114;SDS011;7658;51.456;7.622;2023-02-15T12:44:58;14.82;;;9.35;;
15114;SDS011;7658;51.456;7.622;2023-02-15T12:47:29;13.80;;;8.77;;
15114;SDS011;7658;51.456;7.622;2023-02-15T12:50:07;14.68;;;8.90;;
15114;SDS011;7658;51.456;7.622;2023-02-15T12:52:51;15.43;;;8.55;;
15114;SDS011;7658;51.456;7.622;2023-02-15T12:55:30;13.70;;;9.20;;
15114;SDS011;7658;51.456;7.622;2023-02-15T13:00:45;14.43;;;9.35;;
15114;SDS011;7658;51.456;7.622;2023-02-15T13:03:18;12.23;;;9.05;;
15114;SDS011;7658;51.456;7.622;2023-02-15T13:05:48;13.48;;;8.95;;
15114;SDS011;7658;51.456;7.622;2023-02-15T13:08:17;14.02;;;8.55;;
15114;SDS011;7658;51.456;7.622;2023-02-15T13:13:35;15.55;;;8.85;;
15114;SDS011;7658;51.456;7.622;2023-02-15T13:16:29;11.85;;;8.35;;
15114;SDS011;7658;51.456;7.622;2023-02-15T13:19:34;14.48;;;8.88;;
15114;SDS011;7658;51.456;7.622;2023-02-15T13:21:56;13.38;;;8.45;;
15114;SDS011;7658;51.456;7.622;2023-02-15T13:27:16;16.45;;;8.52;;
15114;SDS011;7658;51.456;7.622;2023-02-15T13:29:52;15.40;;;8.80;;
15114;SDS011;7658;51.456;7.622;2023-02-15T13:32:35;12.90;;;8.43;;
15114;SDS011;7658;51.456;7.622;2023-02-15T13:35:05;13.95;;;8.23;;
15114;SDS011;7658;51.456;7.622;2023-02-15T13:57:20;14.77;;;8.77;;
15114;SDS011;7658;51.456;7.622;2023-02-15T13:59:58;13.02;;;7.63;;
15114;SDS011;7658;51.456;7.622;2023-02-15T14:02:36;16.25;;;9.25;;
15114;SDS011;7658;51.456;7.622;2023-02-15T14:21:49;16.90;;;8.75;;
15114;SDS011;7658;51.456;7.622;2023-02-15T14:24:27;12.88;;;7.78;;
15114;SDS011;7658;51.456;7.622;2023-02-15T14:29:47;15.60;;;8.13;;
15114;SDS011;7658;51.456;7.622;2023-02-15T14:35:12;17.75;;;9.25;;
15114;SDS011;7658;51.456;7.622;2023-02-15T14:43:21;15.57;;;8.43;;
15114;SDS011;7658;51.456;7.622;2023-02-15T14:51:31;16.98;;;8.30;;
15114;SDS011;7658;51.456;7.622;2023-02-15T14:54:07;15.20;;;8.57;;
15114;SDS011;7658;51.456;7.622;2023-02-15T14:59:43;13.88;;;8.73;;
15114;SDS011;7658;51.456;7.622;2023-02-15T15:02:15;17.80;;;9.27;;
15114;SDS011;7658;51.456;7.622;2023-02-15T15:07:48;17.05;;;9.20;;
15114;SDS011;7658;51.456;7.622;2023-02-15T15:12:46;15.43;;;10.23;;
15114;SDS011;7658;51.456;7.622;2023-02-15T15:18:04;20.27;;;11.88;;
15114;SDS011;7658;51.456;7.622;2023-02-15T15:25:56;21.35;;;13.75;;
15114;SDS011;7658;51.456;7.622;2023-02-15T15:43:03;16.02;;;9.20;;
15114;SDS011;7658;51.456;7.622;2023-02-15T15:48:40;25.65;;;19.75;;
15114;SDS011;7658;51.456;7.622;2023-02-15T15:53:49;24.50;;;18.90;;
15114;SDS011;7658;51.456;7.622;2023-02-15T15:56:22;19.95;;;15.55;;
15114;SDS011;7658;51.456;7.622;2023-02-15T15:58:54;16.20;;;12.13;;
15114;SDS011;7658;51.456;7.622;2023-02-15T16:01:24;18.50;;;11.50;;
15114;SDS011;7658;51.456;7.622;2023-02-15T16:03:52;14.95;;;9.85;;
15114;SDS011;7658;51.456;7.622;2023-02-15T16:06:30;16.05;;;9.80;;
15114;SDS011;7658;51.456;7.622;2023-02-15T16:09:23;20.90;;;10.32;;
15114;SDS011;7658;51.456;7.622;2023-02-15T16:11:54;15.43;;;9.93;;
15114;SDS011;7658;51.456;7.622;2023-02-15T16:14:30;18.60;;;10.23;;
15114;SDS011;7658;51.456;7.622;2023-02-15T16:17:01;20.10;;;11.68;;
15114;SDS011;7658;51.456;7.622;2023-02-15T16:19:30;28.13;;;18.38;;
15114;SDS011;7658;51.456;7.622;2023-02-15T16:22:00;19.23;;;14.07;;
15114;SDS011;7658;51.456;7.622;2023-02-15T16:27:47;24.33;;;14.43;;
15114;SDS011;7658;51.456;7.622;2023-02-15T16:33:14;19.70;;;11.10;;
15114;SDS011;7658;51.456;7.622;2023-02-15T16:41:08;27.70;;;15.68;;
15114;SDS011;7658;51.456;7.622;2023-02-15T16:43:36;29.52;;;15.75;;
15114;SDS011;7658;51.456;7.622;2023-02-15T16:46:06;23.27;;;11.95;;
15114;SDS011;7658;51.456;7.622;2023-02-15T16:48:41;26.55;;;12.15;;
15114;SDS011;7658;51.456;7.622;2023-02-15T16:51:10;22.75;;;12.05;;
15114;SDS011;7658;51.456;7.622;2023-02-15T16:53:47;28.25;;;15.02;;
15114;SDS011;7658;51.456;7.622;2023-02-15T16:56:13;34.95;;;18.40;;
15114;SDS011;7658;51.456;7.622;2023-02-15T16:58:42;28.10;;;15.52;;
15114;SDS011;7658;51.456;7.622;2023-02-15T17:01:10;23.05;;;13.52;;
15114;SDS011;7658;51.456;7.622;2023-02-15T17:03:40;25.63;;;14.18;;
15114;SDS011;7658;51.456;7.622;2023-02-15T17:06:26;26.30;;;14.00;;
15114;SDS011;7658;51.456;7.622;2023-02-15T17:09:02;28.85;;;15.40;;
15114;SDS011;7658;51.456;7.622;2023-02-15T17:11:42;26.48;;;14.63;;
15114;SDS011;7658;51.456;7.622;2023-02-15T17:19:13;22.08;;;12.82;;
15114;SDS011;7658;51.456;7.622;2023-02-15T17:21:49;19.00;;;12.13;;
15114;SDS011;7658;51.456;7.622;2023-02-15T17:24:19;18.70;;;11.80;;
15114;SDS011;7658;51.456;7.622;2023-02-15T17:26:52;23.33;;;12.67;;
15114;SDS011;7658;51.456;7.622;2023-02-15T17:29:40;21.50;;;12.27;;
15114;SDS011;7658;51.456;7.622;2023-02-15T17:32:15;16.80;;;11.20;;
15114;SDS011;7658;51.456;7.622;2023-02-15T17:34:56;19.83;;;12.33;;
15114;SDS011;7658;51.456;7.622;2023-02-15T17:37:43;21.63;;;12.63;;
15114;SDS011;7658;51.456;7.622;2023-02-15T17:40:27;19.00;;;12.20;;
15114;SDS011;7658;51.456;7.622;2023-02-15T17:42:54;26.43;;;15.57;;
15114;SDS011;7658;51.456;7.622;2023-02-15T17:45:20;22.97;;;15.30;;
15114;SDS011;7658;51.456;7.622;2023-02-15T17:47:48;20.10;;;13.40;;
15114;SDS011;7658;51.456;7.622;2023-02-15T17:50:19;22.43;;;15.07;;
15114;SDS011;7658;51.456;7.622;2023-02-15T17:52:47;22.80;;;13.33;;
15114;SDS011;7658;51.456;7.622;2023-02-15T17:55:14;26.30;;;13.27;;
15114;SDS011;7658;51.456;7.622;2023-02-15T17:57:59;21.67;;;13.57;;
15114;SDS011;7658;51.456;7.622;2023-02-15T18:00:26;22.03;;;13.13;;
15114;SDS011;7658;51.456;7.622;2023-02-15T18:03:11;26.57;;;14.00;;
15114;SDS011;7658;51.456;7.622;2023-02-15T18:05:55;23.00;;;13.57;;
15114;SDS011;7658;51.456;7.622;2023-02-15T18:08:40;22.90;;;13.63;;
15114;SDS011;7658;51.456;7.622;2023-02-15T18:11:24;19.83;;;13.23;;
15114;SDS011;7658;51.456;7.622;2023-02-15T18:14:02;21.07;;;12.97;;
15114;SDS011;7658;51.456;7.622;2023-02-15T18:16:33;18.83;;;13.07;;
15114;SDS011;7658;51.456;7.622;2023-02-15T18:19:08;19.10;;;12.70;;
15114;SDS011;7658;51.456;7.622;2023-02-15T18:21:41;19.97;;;12.57;;
15114;SDS011;7658;51.456;7.622;2023-02-15T18:24:18;22.37;;;13.73;;
15114;SDS011;7658;51.456;7.622;2023-02-15T18:26:45;26.20;;;14.23;;
15114;SDS011;7658;51.456;7.622;2023-02-15T18:29:11;22.93;;;13.37;;
15114;SDS011;7658;51.456;7.622;2023-02-15T18:31:37;19.40;;;11.80;;
15114;SDS011;7658;51.456;7.622;2023-02-15T18:34:04;17.67;;;11.33;;
15114;SDS011;7658;51.456;7.622;2023-02-15T18:36:39;18.73;;;12.10;;
15114;SDS011;7658;51.456;7.622;2023-02-15T18:45:21;21.73;;;12.17;;
15114;SDS011;7658;51.456;7.622;2023-02-15T18:47:49;26.67;;;15.00;;
15114;SDS011;7658;51.456;7.622;2023-02-15T18:50:16;32.70;;;18.13;;
15114;SDS011;7658;51.456;7.622;2023-02-15T18:52:44;30.03;;;17.80;;
15114;SDS011;7658;51.456;7.622;2023-02-15T18:57:44;25.50;;;13.83;;
15114;SDS011;7658;51.456;7.622;2023-02-15T19:00:44;23.10;;;13.80;;